Time;durP1;ratioP1;P1;durP2;ratioP2;P2;SDS_P1;SDS_P2;PMS_P1;PMS_P2;Temp;Humidity;BMP_temperature;BMP_pressure;BME280_temperature;BME280_humidity;BME280_pressure;Samples;Min_cycle;Max_cycle;Signal;HPM_P1;HPM_P2
2024/03/05 00:02:07;;;;;;;40.43;28.50;;;11.30;96.60;;;;;;5053129;28;20451;-57
2024/03/05 00:04:33;;;;;;;34.70;27.67;;;11.20;96.50;;;;;;5053951;28;20461;-56
2024/03/05 00:07:00;;;;;;;39.40;28.43;;;11.20;96.40;;;;;;5053804;28;20457;-56
2024/03/05 00:09:27;;;;;;;38.20;28.20;;;11.10;96.30;;;;;;5053929;28;20450;-56
2024/03/05 00:11:54;;;;;;;40.80;29.63;;;11.00;96.20;;;;;;5053828;28;20517;-56
2024/03/05 00:14:21;;;;;;;39.07;28.93;;;11.00;96.30;;;;;;5053908;28;20854;-57
2024/03/05 00:16:48;;;;;;;45.30;31.23;;;10.90;96.10;;;;;;5053870;28;20450;-56
2024/03/05 00:19:16;;;;;;;40.97;29.13;;;10.90;96.30;;;;;;5053727;28;20453;-56
2024/03/05 00:21:43;;;;;;;50.23;32.10;;;10.80;96.50;;;;;;5053784;28;20796;-56
2024/03/05 00:24:10;;;;;;;45.67;30.53;;;10.80;96.90;;;;;;5053713;28;20468;-56
2024/03/05 00:26:36;;;;;;;44.90;31.17;;;10.80;97.20;;;;;;5053705;28;20499;-56
2024/03/05 00:29:04;;;;;;;51.87;33.77;;;10.80;97.40;;;;;;5053442;28;20445;-56
2024/03/05 00:31:32;;;;;;;52.30;32.97;;;10.80;97.70;;;;;;5053673;28;20461;-56
2024/03/05 00:33:59;;;;;;;51.60;32.10;;;10.80;98.00;;;;;;5053597;28;20516;-57
2024/03/05 00:36:29;;;;;;;48.80;31.03;;;10.80;98.10;;;;;;5053509;28;20888;-56
2024/03/05 00:38:55;;;;;;;54.70;31.93;;;10.80;98.20;;;;;;5053945;28;20817;-56
2024/03/05 00:41:22;;;;;;;47.17;31.00;;;10.80;98.40;;;;;;5054275;28;20445;-56
2024/03/05 00:43:49;;;;;;;46.70;31.60;;;10.90;98.50;;;;;;5054241;28;20465;-56
2024/03/05 00:46:16;;;;;;;51.77;32.20;;;10.90;98.70;;;;;;5053645;28;20488;-56
2024/03/05 00:48:43;;;;;;;52.30;31.20;;;10.90;98.70;;;;;;5054076;28;20442;-56
2024/03/05 00:51:10;;;;;;;46.90;31.27;;;10.90;98.70;;;;;;5054350;28;20448;-56
2024/03/05 00:53:38;;;;;;;42.57;29.60;;;10.90;98.70;;;;;;5052746;28;20500;-56
2024/03/05 00:56:06;;;;;;;48.93;34.07;;;10.90;98.70;;;;;;5053151;28;20434;-56
2024/03/05 00:58:33;;;;;;;44.23;29.47;;;10.90;98.80;;;;;;5053477;28;20457;-56
2024/03/05 01:01:01;;;;;;;47.43;32.40;;;10.90;98.80;;;;;;5053218;28;20441;-56
2024/03/05 01:03:27;;;;;;;50.07;33.90;;;10.90;98.90;;;;;;5053136;28;20868;-56
2024/03/05 01:05:54;;;;;;;49.60;32.10;;;10.80;99.00;;;;;;5053424;28;20448;-56
2024/03/05 01:08:21;;;;;;;47.27;32.30;;;10.80;99.20;;;;;;5053369;28;20795;-56
2024/03/05 01:10:49;;;;;;;50.67;33.10;;;10.70;99.20;;;;;;5053136;28;20448;-56
2024/03/05 01:13:19;;;;;;;52.63;32.97;;;10.70;99.40;;;;;;5055148;28;20493;-56
2024/03/05 01:15:46;;;;;;;45.03;30.90;;;10.70;99.40;;;;;;5056885;28;20445;-56
2024/03/05 01:18:13;;;;;;;50.23;32.57;;;10.70;99.60;;;;;;5057262;28;20453;-56
2024/03/05 01:20:41;;;;;;;47.67;32.40;;;10.70;99.80;;;;;;5056858;28;20452;-56
2024/03/05 01:23:10;;;;;;;50.13;34.80;;;10.60;99.80;;;;;;5057215;28;20454;-56
2024/03/05 01:25:37;;;;;;;50.47;34.77;;;10.60;99.90;;;;;;5056908;28;20959;-56
2024/03/05 01:28:07;;;;;;;46.57;30.37;;;10.70;99.90;;;;;;5057129;28;20449;-56
2024/03/05 01:30:34;;;;;;;47.20;31.60;;;10.70;99.90;;;;;;5057067;28;20433;-56
2024/03/05 01:33:05;;;;;;;46.67;33.90;;;10.80;99.90;;;;;;5056438;28;20485;-56
2024/03/05 01:35:32;;;;;;;42.47;28.90;;;10.80;99.90;;;;;;5056972;28;20426;-56
2024/03/05 01:37:59;;;;;;;52.60;33.93;;;10.80;99.90;;;;;;5056880;28;20441;-56
2024/03/05 01:40:25;;;;;;;47.97;32.43;;;10.90;99.90;;;;;;5056531;28;20799;-56
2024/03/05 01:42:52;;;;;;;40.73;29.70;;;10.90;99.90;;;;;;5056749;28;20463;-56
2024/03/05 01:45:20;;;;;;;42.00;30.23;;;10.90;99.90;;;;;;5056941;28;20448;-56
2024/03/05 01:47:48;;;;;;;47.77;32.27;;;11.00;99.90;;;;;;5057548;28;20445;-56
2024/03/05 01:50:16;;;;;;;46.40;31.90;;;11.00;99.90;;;;;;5056334;28;20943;-56
2024/03/05 01:52:44;;;;;;;46.60;31.33;;;11.10;99.90;;;;;;5056380;28;20484;-56
2024/03/05 01:55:14;;;;;;;45.40;30.00;;;11.10;99.90;;;;;;5056043;28;20998;-56
2024/03/05 01:57:42;;;;;;;48.43;32.17;;;11.10;99.90;;;;;;5056748;28;20426;-56
2024/03/05 02:00:10;;;;;;;49.43;32.57;;;11.10;99.90;;;;;;5056401;28;20962;-56
2024/03/05 02:02:39;;;;;;;48.43;31.83;;;11.10;99.90;;;;;;5056348;28;20437;-56
2024/03/05 02:05:08;;;;;;;46.33;32.00;;;11.10;99.90;;;;;;5056237;28;20472;-56
2024/03/05 02:07:36;;;;;;;47.03;32.60;;;11.10;99.90;;;;;;5056380;28;20827;-56
2024/03/05 02:10:07;;;;;;;45.40;31.20;;;11.10;99.90;;;;;;5056281;28;20446;-56
2024/03/05 02:12:34;;;;;;;48.57;32.87;;;11.10;99.90;;;;;;5056225;28;20806;-56
2024/03/05 02:15:01;;;;;;;45.07;31.40;;;11.10;99.90;;;;;;5056040;28;20457;-56
2024/03/05 02:17:28;;;;;;;42.13;29.77;;;11.10;99.90;;;;;;5056154;28;20452;-56
2024/03/05 02:19:56;;;;;;;48.10;31.37;;;11.10;99.90;;;;;;5056154;28;20449;-56
2024/03/05 02:22:24;;;;;;;47.03;32.60;;;11.10;99.90;;;;;;5056266;28;20436;-56
2024/03/05 02:24:51;;;;;;;43.87;30.83;;;11.10;99.90;;;;;;5054806;28;20497;-56
2024/03/05 02:27:18;;;;;;;43.60;30.73;;;11.10;99.90;;;;;;5056003;28;20450;-56
2024/03/05 02:29:44;;;;;;;51.57;33.00;;;11.10;99.90;;;;;;5055837;28;20449;-56
2024/03/05 02:32:12;;;;;;;45.00;31.60;;;11.10;99.90;;;;;;5056082;28;20438;-56
2024/03/05 02:34:39;;;;;;;43.47;30.53;;;11.10;99.90;;;;;;5055780;28;20469;-56
2024/03/05 02:37:07;;;;;;;41.27;28.87;;;11.10;99.90;;;;;;5055586;28;20460;-56
2024/03/05 02:39:35;;;;;;;39.40;28.70;;;11.10;99.90;;;;;;5055425;28;20820;-56
2024/03/05 02:42:02;;;;;;;52.07;31.00;;;11.10;99.90;;;;;;5055404;28;21014;-56
2024/03/05 02:44:30;;;;;;;54.27;35.87;;;11.10;99.90;;;;;;5055573;28;20470;-56
2024/03/05 02:46:57;;;;;;;52.57;33.30;;;11.10;99.90;;;;;;5055736;28;20448;-56
2024/03/05 02:49:24;;;;;;;43.50;30.40;;;11.10;99.90;;;;;;5055589;28;20437;-56
2024/03/05 02:51:51;;;;;;;46.90;30.13;;;11.10;99.90;;;;;;5055562;28;20521;-56
2024/03/05 02:54:18;;;;;;;52.73;32.60;;;11.10;99.90;;;;;;5055009;28;20539;-56
2024/03/05 02:56:46;;;;;;;51.70;31.77;;;11.00;99.90;;;;;;5055065;28;20446;-56
2024/03/05 02:59:14;;;;;;;49.00;33.03;;;10.80;99.90;;;;;;5055347;28;20449;-56
2024/03/05 03:01:46;;;;;;;51.40;32.40;;;10.80;99.90;;;;;;5055366;28;20500;-56
2024/03/05 03:04:15;;;;;;;51.43;33.33;;;10.80;99.90;;;;;;5055160;28;20879;-56
2024/03/05 03:06:43;;;;;;;49.27;31.50;;;10.80;99.90;;;;;;5055347;28;20442;-56
2024/03/05 03:09:10;;;;;;;52.30;34.67;;;10.80;99.90;;;;;;5055410;28;20888;-56
2024/03/05 03:11:40;;;;;;;51.00;33.10;;;10.80;99.90;;;;;;5055222;28;20515;-56
2024/03/05 03:14:11;;;;;;;53.80;33.63;;;10.70;99.90;;;;;;5055551;28;20489;-56
2024/03/05 03:16:39;;;;;;;55.93;35.20;;;10.70;99.90;;;;;;5055416;28;20426;-56
2024/03/05 03:19:06;;;;;;;52.13;34.43;;;10.70;99.90;;;;;;5055116;28;20445;-56
2024/03/05 03:21:33;;;;;;;47.97;32.20;;;10.80;99.90;;;;;;5055248;28;20445;-56
2024/03/05 03:24:00;;;;;;;53.73;32.20;;;10.80;99.90;;;;;;5055204;28;20464;-55
2024/03/05 03:26:26;;;;;;;51.30;33.80;;;10.80;99.90;;;;;;5054739;28;20939;-56
2024/03/05 03:28:54;;;;;;;50.90;32.40;;;10.80;99.90;;;;;;5054990;28;20441;-56
2024/03/05 03:31:22;;;;;;;54.80;35.27;;;10.80;99.90;;;;;;5054806;28;20488;-56
2024/03/05 03:33:49;;;;;;;50.90;34.23;;;10.70;99.90;;;;;;5054200;28;20485;-56
2024/03/05 03:36:23;;;;;;;52.93;32.63;;;10.70;99.90;;;;;;5054270;28;20446;-56
2024/03/05 03:38:50;;;;;;;52.20;34.67;;;10.70;99.90;;;;;;5054883;28;20434;-56
2024/03/05 03:41:16;;;;;;;53.67;34.93;;;10.80;99.90;;;;;;5054551;28;20453;-56
2024/03/05 03:43:43;;;;;;;60.90;36.27;;;10.80;99.90;;;;;;5054457;28;20483;-56
2024/03/05 03:46:10;;;;;;;57.03;36.20;;;10.80;99.90;;;;;;5054180;28;21002;-56
2024/03/05 03:48:39;;;;;;;59.87;36.03;;;10.80;99.90;;;;;;5054329;28;20540;-56
2024/03/05 03:51:06;;;;;;;54.27;33.70;;;10.80;99.90;;;;;;5054372;28;20441;-56
2024/03/05 03:53:36;;;;;;;53.43;33.70;;;10.80;99.90;;;;;;5053974;28;20572;-56
2024/03/05 03:56:03;;;;;;;54.63;35.53;;;10.80;99.90;;;;;;5054384;28;20430;-55
2024/03/05 03:58:32;;;;;;;55.17;36.40;;;10.80;99.90;;;;;;5055054;28;20542;-56
2024/03/05 04:00:59;;;;;;;62.20;38.90;;;10.80;99.90;;;;;;5054552;28;20469;-56
2024/03/05 04:03:26;;;;;;;54.30;34.23;;;10.80;99.90;;;;;;5055122;28;20457;-56
2024/03/05 04:05:54;;;;;;;58.13;36.10;;;10.90;99.90;;;;;;5055500;28;20485;-56
2024/03/05 04:08:21;;;;;;;52.07;33.60;;;10.90;99.90;;;;;;5054710;28;20450;-56
2024/03/05 04:10:48;;;;;;;55.07;36.60;;;10.90;99.90;;;;;;5054204;28;20452;-56
2024/03/05 04:13:15;;;;;;;54.40;34.20;;;10.90;99.90;;;;;;5054079;28;20515;-56
2024/03/05 04:15:42;;;;;;;53.93;34.97;;;10.90;99.90;;;;;;5054073;28;20529;-56
2024/03/05 04:18:09;;;;;;;49.53;32.70;;;10.80;99.90;;;;;;5054061;28;20446;-56
2024/03/05 04:20:35;;;;;;;53.10;32.07;;;10.80;99.90;;;;;;5054070;28;20951;-56
2024/03/05 04:23:04;;;;;;;42.70;29.20;;;10.80;99.90;;;;;;5053837;28;20437;-56
2024/03/05 04:25:39;;;;;;;46.13;30.37;;;10.80;99.90;;;;;;5053810;28;20529;-56
2024/03/05 04:28:10;;;;;;;41.13;28.03;;;10.80;99.90;;;;;;5053697;28;20430;-56
2024/03/05 04:30:38;;;;;;;45.67;28.57;;;10.70;99.90;;;;;;5053657;28;20422;-56
2024/03/05 04:33:09;;;;;;;39.13;28.17;;;10.60;99.90;;;;;;5053580;28;20568;-56
2024/03/05 04:35:35;;;;;;;40.43;29.47;;;10.60;99.90;;;;;;5053746;28;20485;-56
2024/03/05 04:38:05;;;;;;;45.63;28.83;;;10.60;99.90;;;;;;5053656;28;20812;-56
2024/03/05 04:40:32;;;;;;;38.87;27.60;;;10.60;99.90;;;;;;5054117;28;20446;-56
2024/03/05 04:42:59;;;;;;;44.80;29.60;;;10.60;99.90;;;;;;5053973;28;20458;-56
2024/03/05 04:45:26;;;;;;;42.30;28.17;;;10.60;99.90;;;;;;5053126;28;20856;-56
2024/03/05 04:47:53;;;;;;;41.40;28.57;;;10.60;99.90;;;;;;5052830;28;20446;-56
2024/03/05 04:50:20;;;;;;;43.50;28.73;;;10.60;99.90;;;;;;5053393;28;20444;-56
2024/03/05 04:52:47;;;;;;;46.43;28.40;;;10.60;99.90;;;;;;5053256;28;20445;-56
2024/03/05 04:55:15;;;;;;;47.33;29.97;;;10.70;99.90;;;;;;5053146;28;20499;-56
2024/03/05 04:57:42;;;;;;;43.23;28.03;;;10.70;99.90;;;;;;5053274;28;20448;-56
2024/03/05 05:00:19;;;;;;;41.40;27.60;;;10.70;99.90;;;;;;5053289;28;20537;-56
2024/03/05 05:02:47;;;;;;;51.10;30.80;;;10.70;99.90;;;;;;5053389;28;20767;-56
2024/03/05 05:05:14;;;;;;;48.70;29.97;;;10.80;99.90;;;;;;5053189;28;20468;-56
2024/03/05 05:07:41;;;;;;;43.23;26.87;;;10.80;99.90;;;;;;5053046;28;20446;-56
2024/03/05 05:10:08;;;;;;;39.00;26.13;;;10.80;99.90;;;;;;5052735;28;20456;-56
2024/03/05 05:12:38;;;;;;;48.60;30.57;;;10.80;99.90;;;;;;5053183;28;20463;-56
2024/03/05 05:15:06;;;;;;;48.20;32.30;;;10.80;99.90;;;;;;5053278;28;20490;-56
2024/03/05 05:17:33;;;;;;;40.27;28.47;;;10.80;99.90;;;;;;5053955;28;20536;-56
2024/03/05 05:19:59;;;;;;;47.13;28.83;;;10.80;99.90;;;;;;5053072;28;20448;-56
2024/03/05 05:22:26;;;;;;;43.57;28.20;;;10.80;99.90;;;;;;5053037;28;20452;-56
2024/03/05 05:24:53;;;;;;;47.40;29.17;;;10.80;99.90;;;;;;5052624;28;20994;-57
2024/03/05 05:27:21;;;;;;;48.07;31.77;;;10.80;99.90;;;;;;5053049;28;20441;-57
2024/03/05 05:29:49;;;;;;;44.97;29.60;;;10.80;99.90;;;;;;5052830;28;20503;-56
2024/03/05 05:32:16;;;;;;;40.10;26.93;;;10.80;99.90;;;;;;5052978;28;20446;-56
2024/03/05 05:34:43;;;;;;;45.17;29.40;;;10.80;99.90;;;;;;5052767;28;20507;-56
2024/03/05 05:37:10;;;;;;;44.80;30.67;;;10.90;99.90;;;;;;5052896;28;20443;-56
2024/03/05 05:39:37;;;;;;;51.30;29.20;;;10.80;99.90;;;;;;5052969;28;20491;-56
2024/03/05 05:42:04;;;;;;;45.10;30.17;;;10.90;99.90;;;;;;5052860;28;20460;-56
2024/03/05 05:44:31;;;;;;;51.80;32.03;;;10.90;99.90;;;;;;5052836;28;20487;-56
2024/03/05 05:47:03;;;;;;;44.77;30.30;;;10.90;99.90;;;;;;5052425;28;20452;-56
2024/03/05 05:49:31;;;;;;;43.43;29.00;;;10.90;99.90;;;;;;5052902;28;20432;-56
2024/03/05 05:51:58;;;;;;;55.50;32.93;;;10.80;99.90;;;;;;5052888;28;20453;-56
2024/03/05 05:54:24;;;;;;;51.33;30.60;;;10.80;99.90;;;;;;5052283;28;20485;-56
2024/03/05 05:56:51;;;;;;;46.70;30.87;;;10.80;99.90;;;;;;5052511;28;20944;-56
2024/03/05 05:59:18;;;;;;;45.87;30.80;;;10.80;99.90;;;;;;5054926;28;20449;-56
2024/03/05 06:01:45;;;;;;;48.83;31.07;;;10.70;99.90;;;;;;5056515;28;20548;-56
2024/03/05 06:04:15;;;;;;;50.33;32.80;;;10.70;99.90;;;;;;5056444;28;20456;-56
2024/03/05 06:06:43;;;;;;;52.00;33.60;;;10.70;99.90;;;;;;5056603;28;20499;-56
2024/03/05 06:09:09;;;;;;;56.83;35.20;;;10.70;99.90;;;;;;5056332;28;20939;-56
2024/03/05 06:11:37;;;;;;;52.70;33.67;;;10.70;99.90;;;;;;5056133;28;20932;-56
2024/03/05 06:14:04;;;;;;;50.97;32.80;;;10.60;99.90;;;;;;5056155;28;20534;-57
2024/03/05 06:16:32;;;;;;;49.40;32.93;;;10.60;99.90;;;;;;5055943;28;20966;-57
2024/03/05 06:18:59;;;;;;;47.60;31.20;;;10.60;99.90;;;;;;5056197;28;20519;-56
2024/03/05 06:21:27;;;;;;;51.30;32.83;;;10.60;99.90;;;;;;5056252;28;20467;-57
2024/03/05 06:23:54;;;;;;;51.97;32.70;;;10.60;99.90;;;;;;5056379;28;20461;-56
2024/03/05 06:26:21;;;;;;;49.77;32.80;;;10.60;99.90;;;;;;5056339;28;20445;-56
2024/03/05 06:28:48;;;;;;;51.23;34.43;;;10.60;99.90;;;;;;5055926;28;20450;-56
2024/03/05 06:31:15;;;;;;;50.90;32.80;;;10.60;99.90;;;;;;5055957;28;20442;-57
2024/03/05 06:33:42;;;;;;;46.27;31.50;;;10.60;99.90;;;;;;5055708;28;20489;-56
2024/03/05 06:36:11;;;;;;;56.87;35.00;;;10.60;99.90;;;;;;5055880;28;20468;-57
2024/03/05 06:38:39;;;;;;;50.43;31.97;;;10.60;99.90;;;;;;5055496;28;21026;-56
2024/03/05 06:41:06;;;;;;;53.03;33.13;;;10.60;99.90;;;;;;5055747;28;20433;-56
2024/03/05 06:43:36;;;;;;;54.53;33.83;;;10.60;99.90;;;;;;5055685;28;20458;-57
2024/03/05 06:46:03;;;;;;;56.10;33.57;;;10.60;99.90;;;;;;5055722;28;20448;-57
2024/03/05 06:48:32;;;;;;;59.10;34.57;;;10.50;99.90;;;;;;5055629;28;20449;-56
2024/03/05 06:51:01;;;;;;;53.10;33.13;;;10.50;99.90;;;;;;5055533;28;20449;-57
2024/03/05 06:58:59;;;;;;;59.23;33.10;;;10.50;99.90;;;;;;5055521;28;20767;-56
2024/03/05 07:01:28;;;;;;;53.97;32.67;;;10.50;99.90;;;;;;5055433;28;20503;-57
2024/03/05 07:03:55;;;;;;;57.00;34.03;;;10.50;99.90;;;;;;5055217;28;20468;-57
2024/03/05 07:06:23;;;;;;;58.07;34.60;;;10.60;99.90;;;;;;5055193;28;20452;-57
2024/03/05 07:08:51;;;;;;;55.40;35.20;;;10.60;99.90;;;;;;5055079;28;20454;-57
2024/03/05 07:11:19;;;;;;;53.57;34.30;;;10.60;99.90;;;;;;5054542;28;20534;-57
2024/03/05 07:13:48;;;;;;;52.90;33.70;;;10.60;99.90;;;;;;5055003;28;20465;-57
2024/03/05 07:16:16;;;;;;;54.37;34.60;;;10.60;99.90;;;;;;5055056;28;20442;-57
2024/03/05 07:18:44;;;;;;;61.23;34.93;;;10.60;99.90;;;;;;5055050;28;20445;-57
2024/03/05 07:21:11;;;;;;;54.37;34.60;;;10.70;99.90;;;;;;5055151;28;20478;-58
2024/03/05 07:23:39;;;;;;;60.73;34.60;;;10.70;99.90;;;;;;5055134;28;20469;-58
2024/03/05 07:26:06;;;;;;;55.50;34.70;;;10.70;99.90;;;;;;5055158;28;20861;-58
2024/03/05 07:28:35;;;;;;;54.90;34.83;;;10.70;99.90;;;;;;5056417;28;20446;-58
2024/03/05 07:31:01;;;;;;;52.90;35.10;;;10.70;99.90;;;;;;5055547;28;20457;-58
2024/03/05 07:33:28;;;;;;;67.93;35.27;;;10.60;99.90;;;;;;5055578;28;20828;-57
2024/03/05 07:35:55;;;;;;;57.27;36.27;;;10.60;99.90;;;;;;5055132;28;20482;-58
2024/03/05 07:38:22;;;;;;;62.50;35.67;;;10.60;99.90;;;;;;5054796;28;20940;-57
2024/03/05 07:40:49;;;;;;;54.53;33.70;;;10.70;99.90;;;;;;5055096;28;20445;-57
2024/03/05 07:43:16;;;;;;;53.67;34.77;;;10.70;99.90;;;;;;5054782;28;20453;-58
2024/03/05 07:45:44;;;;;;;49.10;31.83;;;10.70;99.90;;;;;;5054747;28;20563;-58
2024/03/05 07:48:11;;;;;;;52.67;34.87;;;10.80;99.90;;;;;;5054662;28;20863;-58
2024/03/05 07:50:39;;;;;;;50.00;32.47;;;10.80;99.90;;;;;;5054422;28;20457;-58
2024/03/05 07:53:05;;;;;;;58.10;36.30;;;10.80;99.90;;;;;;5054338;28;20438;-57
2024/03/05 07:55:36;;;;;;;48.80;32.27;;;10.80;99.90;;;;;;5054186;28;20511;-57
2024/03/05 07:58:04;;;;;;;52.10;33.47;;;10.80;99.90;;;;;;5054314;28;20422;-57
2024/03/05 08:00:31;;;;;;;55.60;35.80;;;10.80;99.90;;;;;;5054379;28;20441;-57
2024/03/05 08:02:59;;;;;;;56.47;34.43;;;10.90;99.90;;;;;;5054353;28;20450;-57
2024/03/05 08:05:26;;;;;;;49.47;34.17;;;10.80;99.90;;;;;;5054296;28;20459;-57
2024/03/05 08:07:54;;;;;;;56.77;35.53;;;10.90;99.90;;;;;;5054163;28;20452;-57
2024/03/05 08:10:22;;;;;;;50.47;32.47;;;10.90;99.90;;;;;;5054164;28;20444;-57
2024/03/05 08:12:50;;;;;;;48.80;31.57;;;10.90;99.90;;;;;;5056898;28;20440;-56
2024/03/05 08:15:18;;;;;;;49.60;33.30;;;10.90;99.90;;;;;;5074106;28;20530;-57
2024/03/05 08:17:46;;;;;;;61.27;36.63;;;11.00;99.90;;;;;;5074103;28;20451;-57
2024/03/05 08:20:15;;;;;;;56.53;37.73;;;11.00;99.90;;;;;;5074113;28;20445;-57
2024/03/05 08:22:43;;;;;;;66.43;40.50;;;11.00;99.90;;;;;;5073110;28;20441;-57
2024/03/05 08:25:12;;;;;;;53.70;37.30;;;11.00;99.90;;;;;;5073900;28;20496;-57
2024/03/05 08:27:39;;;;;;;57.40;34.07;;;11.00;99.90;;;;;;5073988;28;20449;-57
2024/03/05 08:30:08;;;;;;;53.30;35.43;;;11.00;99.90;;;;;;5073870;28;20447;-57
2024/03/05 08:32:36;;;;;;;57.83;34.17;;;11.00;99.90;;;;;;5073810;28;20441;-57
2024/03/05 08:35:03;;;;;;;57.93;33.30;;;11.00;99.90;;;;;;5073784;28;20480;-57
2024/03/05 08:37:31;;;;;;;49.60;31.70;;;11.00;99.90;;;;;;5073731;28;20445;-57
2024/03/05 08:39:58;;;;;;;50.67;31.70;;;11.10;99.90;;;;;;5073708;28;20440;-57
2024/03/05 08:42:25;;;;;;;58.23;35.37;;;11.10;99.90;;;;;;5073761;28;20449;-57
2024/03/05 08:44:52;;;;;;;56.97;34.20;;;11.10;99.90;;;;;;5073399;28;20457;-57
2024/03/05 08:47:19;;;;;;;58.40;33.90;;;11.10;99.90;;;;;;5073382;28;20450;-57
2024/03/05 08:49:50;;;;;;;50.80;32.57;;;11.00;99.90;;;;;;5073480;28;20440;-57
2024/03/05 08:52:17;;;;;;;57.80;34.60;;;11.10;99.90;;;;;;5073473;28;20463;-57
2024/03/05 08:54:45;;;;;;;54.13;34.43;;;11.10;99.90;;;;;;5073045;28;20605;-57
2024/03/05 08:57:12;;;;;;;50.60;37.10;;;11.10;99.90;;;;;;5073447;28;20436;-57
2024/03/05 08:59:39;;;;;;;55.10;38.07;;;11.10;99.90;;;;;;5072993;28;20448;-57
2024/03/05 09:02:07;;;;;;;62.17;37.60;;;11.00;99.90;;;;;;5073343;28;20453;-57
2024/03/05 09:04:34;;;;;;;55.63;36.17;;;11.00;99.90;;;;;;5073202;28;20548;-57
2024/03/05 09:07:01;;;;;;;51.10;33.47;;;11.10;99.90;;;;;;5073255;28;20838;-57
2024/03/05 09:09:30;;;;;;;54.53;34.83;;;11.00;99.90;;;;;;5073497;28;20444;-57
2024/03/05 09:11:58;;;;;;;61.90;35.30;;;11.10;99.90;;;;;;5073142;28;20457;-57
2024/03/05 09:14:25;;;;;;;60.60;36.27;;;11.10;99.90;;;;;;5072724;28;21000;-57
2024/03/05 09:16:53;;;;;;;55.47;34.23;;;11.10;99.90;;;;;;5073237;28;20451;-57
2024/03/05 09:19:21;;;;;;;55.57;35.53;;;11.10;99.90;;;;;;5072817;28;20448;-57
2024/03/05 09:21:48;;;;;;;57.87;36.03;;;11.10;99.90;;;;;;5073189;28;20457;-57
2024/03/05 09:24:16;;;;;;;52.50;34.20;;;11.10;99.90;;;;;;5073034;28;20464;-57
2024/03/05 09:26:42;;;;;;;58.70;35.43;;;11.10;99.90;;;;;;5073198;28;20444;-57
2024/03/05 09:29:12;;;;;;;59.93;35.80;;;11.10;99.90;;;;;;5072963;28;20467;-57
2024/03/05 09:31:39;;;;;;;60.03;36.30;;;11.20;99.90;;;;;;5072881;28;20891;-57
2024/03/05 09:34:06;;;;;;;60.00;34.80;;;11.20;99.90;;;;;;5074931;28;20467;-57
2024/03/05 09:36:33;;;;;;;58.10;34.23;;;11.20;99.90;;;;;;5077064;28;20494;-57
2024/03/05 09:38:59;;;;;;;54.63;32.50;;;11.30;99.90;;;;;;5076586;28;20822;-57
2024/03/05 09:41:28;;;;;;;52.33;31.43;;;11.30;99.90;;;;;;5076888;28;20470;-57
2024/03/05 09:43:55;;;;;;;49.77;31.30;;;11.30;99.90;;;;;;5076813;28;20464;-56
2024/03/05 09:46:24;;;;;;;43.43;28.17;;;11.30;99.90;;;;;;5076775;28;20436;-57
2024/03/05 09:48:52;;;;;;;55.23;32.53;;;11.30;99.90;;;;;;5076380;28;20470;-57
2024/03/05 09:51:23;;;;;;;53.83;32.63;;;11.40;99.90;;;;;;5076716;28;20448;-57
2024/03/05 09:53:52;;;;;;;51.23;30.17;;;11.40;99.90;;;;;;5076384;28;20570;-57
2024/03/05 09:56:20;;;;;;;44.53;27.80;;;11.40;99.90;;;;;;5076643;28;20519;-58
2024/03/05 09:58:48;;;;;;;43.03;29.00;;;11.40;99.90;;;;;;5076546;28;20444;-57
2024/03/05 10:01:15;;;;;;;47.10;26.90;;;11.40;99.90;;;;;;5076538;28;20450;-57
2024/03/05 10:03:43;;;;;;;43.27;27.00;;;11.50;99.90;;;;;;5076484;28;20461;-57
2024/03/05 10:06:12;;;;;;;47.07;29.70;;;11.50;99.90;;;;;;5076476;28;20444;-57
2024/03/05 10:08:40;;;;;;;41.63;27.80;;;11.50;99.90;;;;;;5076340;28;20447;-57
2024/03/05 10:11:07;;;;;;;39.43;25.73;;;11.50;99.90;;;;;;5076337;28;20436;-57
2024/03/05 10:13:36;;;;;;;43.23;26.67;;;11.50;99.90;;;;;;5076242;28;20460;-57
2024/03/05 10:16:16;;;;;;;45.93;26.53;;;11.60;99.90;;;;;;5076170;28;20476;-58
2024/03/05 10:18:46;;;;;;;43.53;26.37;;;11.60;99.90;;;;;;5076236;28;20448;-57
2024/03/05 10:21:18;;;;;;;45.10;26.87;;;11.70;99.90;;;;;;5076272;28;20449;-58
2024/03/05 10:23:49;;;;;;;45.43;25.37;;;11.70;99.90;;;;;;5076025;28;20575;-57
2024/03/05 10:26:21;;;;;;;37.70;25.60;;;11.70;99.90;;;;;;5076169;28;20429;-57
2024/03/05 10:28:50;;;;;;;42.20;27.20;;;11.70;99.90;;;;;;5075963;28;20452;-57
2024/03/05 10:31:21;;;;;;;42.57;26.07;;;11.70;99.90;;;;;;5076284;28;20498;-57
2024/03/05 10:33:53;;;;;;;42.53;25.07;;;11.80;99.90;;;;;;5075880;28;20464;-57
2024/03/05 10:36:30;;;;;;;38.73;23.87;;;11.80;99.90;;;;;;5075874;28;20553;-57
2024/03/05 10:38:57;;;;;;;39.60;23.70;;;11.90;99.90;;;;;;5075937;28;20420;-57
2024/03/05 10:41:27;;;;;;;31.87;21.70;;;11.90;99.90;;;;;;5075840;28;20441;-57
2024/03/05 10:43:56;;;;;;;35.90;22.73;;;11.90;99.90;;;;;;5075338;28;20547;-57
2024/03/05 10:46:23;;;;;;;35.60;22.33;;;11.90;99.90;;;;;;5074763;28;20453;-57
2024/03/05 10:48:52;;;;;;;32.40;22.33;;;12.00;99.90;;;;;;5075576;28;20455;-57
2024/03/05 10:51:21;;;;;;;29.80;21.90;;;12.00;99.90;;;;;;5075571;28;20457;-58
2024/03/05 10:53:49;;;;;;;31.57;20.80;;;11.90;99.90;;;;;;5075440;28;20468;-58
2024/03/05 10:56:17;;;;;;;30.97;22.50;;;11.90;99.90;;;;;;5075858;28;20894;-57
2024/03/05 11:01:40;;;;;;;37.77;24.90;;;11.90;99.90;;;;;;5050920;28;20943;-55
2024/03/05 11:04:15;;;;;;;39.73;26.90;;;11.90;99.90;;;;;;5075859;28;20461;-55
2024/03/05 11:06:42;;;;;;;38.43;25.20;;;11.90;99.90;;;;;;5075542;28;20421;-55
2024/03/05 11:09:15;;;;;;;37.80;23.60;;;12.00;99.90;;;;;;5076487;28;20447;-56
2024/03/05 11:11:46;;;;;;;35.67;23.17;;;12.00;99.90;;;;;;5076681;28;20433;-56
2024/03/05 11:14:14;;;;;;;30.83;22.83;;;12.10;99.90;;;;;;5075377;28;20898;-56
2024/03/05 11:16:41;;;;;;;25.83;20.17;;;12.00;99.90;;;;;;5075120;28;20480;-56
2024/03/05 11:19:10;;;;;;;28.77;18.00;;;11.90;99.90;;;;;;5075000;28;20449;-56
2024/03/05 11:21:41;;;;;;;24.07;17.07;;;11.90;99.90;;;;;;5075719;28;20829;-56
2024/03/05 11:24:08;;;;;;;20.20;16.10;;;11.80;99.90;;;;;;5075847;28;20464;-56
2024/03/05 11:26:35;;;;;;;20.47;15.40;;;11.70;99.90;;;;;;5075127;28;20532;-56
2024/03/05 11:29:06;;;;;;;22.37;14.87;;;11.60;99.90;;;;;;5075091;28;20480;-56
2024/03/05 11:31:34;;;;;;;19.30;15.77;;;11.60;99.90;;;;;;5071224;28;20847;-55
2024/03/05 11:34:18;;;;;;;18.97;15.10;;;11.60;99.90;;;;;;5074127;28;20469;-55
2024/03/05 11:36:45;;;;;;;20.33;15.43;;;11.50;99.90;;;;;;5073290;28;20488;-55
2024/03/05 11:39:14;;;;;;;21.07;14.70;;;11.50;99.90;;;;;;5074847;28;20451;-56
2024/03/05 11:41:43;;;;;;;18.97;14.30;;;11.50;99.90;;;;;;5074485;28;20842;-55
2024/03/05 11:44:12;;;;;;;21.07;15.70;;;11.50;99.90;;;;;;5074358;28;20460;-56
2024/03/05 11:46:40;;;;;;;19.70;14.70;;;11.50;99.90;;;;;;5074590;28;20949;-56
2024/03/05 11:49:07;;;;;;;17.80;14.50;;;11.50;99.90;;;;;;5074895;28;20452;-56
2024/03/05 11:51:35;;;;;;;16.17;12.47;;;11.50;99.90;;;;;;5074404;28;20463;-55
2024/03/05 11:54:02;;;;;;;19.03;13.47;;;11.50;99.90;;;;;;5074162;28;20472;-56
2024/03/05 11:56:29;;;;;;;12.77;10.67;;;11.50;99.90;;;;;;5074240;28;20484;-56
2024/03/05 11:58:56;;;;;;;15.30;10.13;;;11.50;99.90;;;;;;5074247;28;20440;-56
2024/03/05 12:01:24;;;;;;;14.97;10.93;;;11.40;99.90;;;;;;5074271;28;20447;-56
2024/03/05 12:04:00;;;;;;;11.10;8.63;;;11.40;99.90;;;;;;5074263;28;20465;-56
2024/03/05 12:06:27;;;;;;;14.67;10.47;;;11.40;99.90;;;;;;5074311;28;20417;-56
2024/03/05 12:08:57;;;;;;;11.40;9.63;;;11.40;99.90;;;;;;5073894;28;20440;-55
2024/03/05 12:11:24;;;;;;;10.93;9.00;;;11.50;99.90;;;;;;5073911;28;20448;-56
2024/03/05 12:13:50;;;;;;;10.83;9.73;;;11.50;99.90;;;;;;5073964;28;20490;-56
2024/03/05 12:16:17;;;;;;;13.27;9.70;;;11.70;99.90;;;;;;5073919;28;20476;-56
2024/03/05 12:18:44;;;;;;;11.07;9.67;;;11.80;99.90;;;;;;5073979;28;20528;-56
2024/03/05 12:21:11;;;;;;;14.13;8.80;;;11.90;99.90;;;;;;5073969;28;20785;-56
2024/03/05 12:23:38;;;;;;;11.73;8.30;;;12.00;99.90;;;;;;5073787;28;20468;-56
2024/03/05 12:26:07;;;;;;;11.47;7.90;;;12.10;99.90;;;;;;5073301;28;20445;-57
2024/03/05 12:28:34;;;;;;;12.33;7.20;;;12.20;99.90;;;;;;5074698;28;20451;-56
2024/03/05 12:31:01;;;;;;;10.90;7.87;;;12.30;99.90;;;;;;5073724;28;20531;-56
2024/03/05 12:33:30;;;;;;;11.30;7.83;;;12.30;99.90;;;;;;5073293;28;21009;-56
2024/03/05 12:35:58;;;;;;;8.47;6.87;;;12.40;99.90;;;;;;5073620;28;20884;-56
2024/03/05 12:38:25;;;;;;;7.37;6.67;;;12.30;99.90;;;;;;5073318;28;20935;-56
2024/03/05 12:41:00;;;;;;;7.70;6.50;;;12.30;99.70;;;;;;5073634;28;20447;-56